Nashville, NC (27856)

1:16 PM EDT on September 05, 2015 (GMT -0400)
Nashville - Birchwood | | Change Station
CLOSE
Current Station
Personal Weather Station
Location: Nashville, NC
Elevation: 223 ft
Nearby Weather Stations

Elev 223 ft 35.96 °N, 77.94 °W | Updated 26 seconds ago

Overcast
Overcast
86.2 °F
Feels Like 96 °F
N
4.9
Wind Variable Wind from NNE
Gusts 8.0 mph

Today
High -- | Low -- °F
--% Chance of Precip.
Yesterday
High -- | Low -- °F
Precip. -- in
6:46 AM 7:34 PM
Waning Gibbous, 47% visible
Pressure 30.12 in
Visibility 8.0 miles
Clouds Scattered Clouds 2400 ft
Scattered Clouds 3000 ft
Mostly Cloudy 3900 ft
Heat Index 96 °F
Dew Point 76 °F
Humidity 72%
Rainfall 0.00 in
Snow Depth Not available.
UV 5 out of 12
Pollen 8.60 out of 12
Air Quality Not available.
Flu Activity Not available.
SPECI KRWI 051710Z AUTO 05008KT 8SM -RA SCT024 SCT030 BKN039 28/22 A3012 RMK AO2 RAB09 P0001 T02830222
Pressure 30.12 in
Visibility 8.0 miles
Clouds Scattered Clouds 2400 ft
Scattered Clouds 3000 ft
Mostly Cloudy 3900 ft
Heat Index 96 °F
Dew Point 76 °F
Humidity 72%
Rainfall 0.00 in
Snow Depth Not available.
UV 5 out of 12
Pollen 8.60 out of 12
Air Quality Not available.
Flu Activity Not available.
SPECI KRWI 051710Z AUTO 05008KT 8SM -RA SCT024 SCT030 BKN039 28/22 A3012 RMK AO2 RAB09 P0001 T02830222

10-Day Weather Forecast

×

Almanac

Astronomy

Sep. 05, 2015 Rise Set
Actual Time
Civil Twilight
Nautical Twilight
Astronomical Twilight
Moon
Length of Visible Light
Length of Day
Tomorrow will be .
, % of the Moon is Illuminated

Today's Extremes

State Highs State Lows

Community

WunderPhotos

Upload Photos

1,852,504 photos uploaded!

WunderBlogs® & News

Nearby

Air Quality

  Air Quality AQ Index Pollutant
Not available.

Snow Depth

Station Depth Elevation

Earthquake Activity

City Distance Mag. Time & Date
Minimum magnitude displayed is 2.5.

Coastal Water Temperatures

Place Temperature

Stations

Nearby Weather Stations

Station Location Temp. Windchill Dew Point Humidity Wind Precip. Elev Updated Type